Time;durP1;ratioP1;P1;durP2;ratioP2;P2;SDS_P1;SDS_P2;PMS_P1;PMS_P2;Temp;Humidity;BMP_temperature;BMP_pressure;BME280_temperature;BME280_humidity;BME280_pressure;Samples;Min_cycle;Max_cycle;Signal;HPM_P1;HPM_P2
2022/10/03 00:00:24;;;;;;;16.88;8.02;;;13.00;99.90;;;;;;5072123;28;20375;-56
2022/10/03 00:02:55;;;;;;;17.35;8.15;;;13.00;99.90;;;;;;5072272;28;20403;-54
2022/10/03 00:05:35;;;;;;;15.48;7.68;;;13.10;99.90;;;;;;5071993;28;20749;-54
2022/10/03 00:08:08;;;;;;;16.65;7.93;;;13.00;99.90;;;;;;5072342;28;20429;-54
2022/10/03 00:11:30;;;;;;;17.67;7.57;;;13.10;99.90;;;;;;5071300;28;20757;-54
2022/10/03 00:14:02;;;;;;;17.27;8.32;;;13.10;99.90;;;;;;5000254;28;20886;-54
2022/10/03 00:16:45;;;;;;;15.27;7.90;;;13.20;99.90;;;;;;5071631;28;20364;-54
2022/10/03 00:19:47;;;;;;;16.77;7.80;;;13.30;99.90;;;;;;5072328;28;20441;-54
2022/10/03 00:22:38;;;;;;;19.20;8.30;;;13.10;99.90;;;;;;5072387;28;20412;-54
2022/10/03 00:25:37;;;;;;;19.92;8.38;;;13.10;99.90;;;;;;5070605;28;20432;-53
2022/10/03 00:28:36;;;;;;;17.33;8.35;;;13.10;99.90;;;;;;5072197;28;20489;-54
2022/10/03 00:31:13;;;;;;;16.67;9.05;;;13.10;99.90;;;;;;5071596;28;20408;-54
2022/10/03 00:34:03;;;;;;;21.20;9.48;;;13.10;99.90;;;;;;5070999;28;20480;-54
2022/10/03 00:37:06;;;;;;;18.90;9.20;;;13.10;99.90;;;;;;5071450;28;20424;-54
2022/10/03 00:40:12;;;;;;;18.97;10.07;;;13.10;99.90;;;;;;5071500;28;20471;-54
2022/10/03 00:43:03;;;;;;;18.88;9.60;;;13.10;99.90;;;;;;5070940;28;20508;-54
2022/10/03 00:45:49;;;;;;;20.67;9.63;;;13.20;99.90;;;;;;5070796;28;20734;-54
2022/10/03 00:48:26;;;;;;;18.83;9.32;;;13.30;99.90;;;;;;5071765;28;20380;-54
2022/10/03 00:51:24;;;;;;;17.17;9.48;;;13.20;99.90;;;;;;5071860;28;20391;-54
2022/10/03 00:54:25;;;;;;;19.92;9.20;;;13.10;99.90;;;;;;5070986;28;20427;-54
2022/10/03 00:57:09;;;;;;;19.47;9.40;;;13.20;99.90;;;;;;5056144;28;20399;-54
2022/10/03 01:00:03;;;;;;;18.65;9.65;;;13.20;99.90;;;;;;5070583;28;20466;-54
2022/10/03 01:02:54;;;;;;;18.70;9.23;;;13.20;99.90;;;;;;5070097;28;20408;-54
2022/10/03 01:05:45;;;;;;;18.77;9.67;;;13.20;99.90;;;;;;5029724;28;20469;-53
2022/10/03 01:08:33;;;;;;;17.52;8.40;;;13.10;99.90;;;;;;5071255;28;20565;-54
2022/10/03 01:11:19;;;;;;;19.88;9.20;;;13.20;99.90;;;;;;5070818;28;20451;-54
2022/10/03 01:14:03;;;;;;;16.17;8.38;;;13.20;99.90;;;;;;5070249;28;20479;-54
2022/10/03 01:16:38;;;;;;;16.52;8.60;;;13.20;99.90;;;;;;5070424;28;20470;-54
2022/10/03 01:19:10;;;;;;;18.40;8.90;;;13.20;99.90;;;;;;5070884;28;20388;-53
2022/10/03 01:21:46;;;;;;;19.08;8.45;;;13.20;99.90;;;;;;5070480;28;20380;-54
2022/10/03 01:24:49;;;;;;;18.65;9.70;;;13.20;99.90;;;;;;5071098;28;20402;-53
2022/10/03 01:30:21;;;;;;;16.20;8.10;;;13.20;99.90;;;;;;5070764;28;20706;-54
2022/10/03 01:30:21;;;;;;;16.58;8.43;;;13.10;99.90;;;;;;5070238;28;20936;-54
2022/10/03 01:33:31;;;;;;;19.30;9.00;;;13.10;99.90;;;;;;5070110;28;20442;-54
2022/10/03 01:36:32;;;;;;;15.30;7.85;;;13.10;99.90;;;;;;5052881;28;20483;-54
2022/10/03 01:39:27;;;;;;;17.75;7.88;;;13.10;99.90;;;;;;5086360;28;20407;-54
2022/10/03 01:42:19;;;;;;;16.40;7.97;;;13.10;99.90;;;;;;5070523;28;20471;-54
2022/10/03 01:45:13;;;;;;;16.38;8.38;;;13.10;99.90;;;;;;5085459;28;20399;-54
2022/10/03 01:47:50;;;;;;;17.45;7.32;;;13.00;99.90;;;;;;5052113;28;20873;-54
2022/10/03 01:50:25;;;;;;;18.67;8.43;;;12.90;99.90;;;;;;5070650;28;20394;-54
2022/10/03 01:53:12;;;;;;;19.92;8.82;;;12.90;99.90;;;;;;5069942;28;20419;-54
2022/10/03 01:55:59;;;;;;;20.98;8.98;;;12.90;99.90;;;;;;5069669;28;20379;-54
2022/10/03 01:58:43;;;;;;;22.08;8.80;;;13.00;99.90;;;;;;5069552;28;20475;-56
2022/10/03 02:01:19;;;;;;;22.25;9.93;;;13.00;99.90;;;;;;5070146;28;20449;-54
2022/10/03 02:03:54;;;;;;;18.00;7.90;;;13.00;99.90;;;;;;5069605;28;20803;-54
2022/10/03 02:06:49;;;;;;;17.88;9.00;;;13.00;99.90;;;;;;5069991;28;20387;-54
2022/10/03 02:09:35;;;;;;;18.63;8.48;;;13.00;99.90;;;;;;5070637;28;20474;-54
2022/10/03 02:12:15;;;;;;;20.98;9.40;;;12.90;99.90;;;;;;5070256;28;20815;-54
2022/10/03 02:14:51;;;;;;;17.88;8.80;;;12.90;99.90;;;;;;5070084;28;20450;-54
2022/10/03 02:17:41;;;;;;;19.65;9.07;;;13.00;99.90;;;;;;5069635;28;20747;-54
2022/10/03 02:20:26;;;;;;;18.40;8.23;;;13.00;99.90;;;;;;5070093;28;20395;-54
2022/10/03 02:22:56;;;;;;;17.83;8.10;;;12.90;99.90;;;;;;5070289;28;20413;-54
2022/10/03 02:25:40;;;;;;;17.60;8.90;;;12.90;99.90;;;;;;5069474;28;20480;-54
2022/10/03 02:28:09;;;;;;;17.98;8.75;;;13.00;99.90;;;;;;5069758;28;20387;-54
2022/10/03 02:31:03;;;;;;;18.95;8.88;;;13.00;99.90;;;;;;5069371;28;20397;-54
2022/10/03 02:34:01;;;;;;;17.20;8.48;;;13.00;99.90;;;;;;5068574;28;20412;-56
2022/10/03 02:36:39;;;;;;;19.85;8.65;;;13.00;99.90;;;;;;5069412;28;20421;-54
2022/10/03 02:39:20;;;;;;;19.63;8.77;;;13.00;99.90;;;;;;5069493;28;20478;-54
2022/10/03 02:41:51;;;;;;;19.20;8.53;;;13.10;99.90;;;;;;5069469;28;20987;-54
2022/10/03 02:44:26;;;;;;;19.50;8.38;;;13.00;99.90;;;;;;5069747;28;20440;-54
2022/10/03 02:47:16;;;;;;;17.50;8.10;;;13.10;99.90;;;;;;5070221;28;20390;-54
2022/10/03 02:50:19;;;;;;;16.35;8.05;;;13.10;99.90;;;;;;5068785;28;20401;-54
2022/10/03 02:52:58;;;;;;;17.38;8.40;;;13.10;99.90;;;;;;5068504;28;20499;-54
2022/10/03 02:55:39;;;;;;;15.40;7.90;;;13.00;99.90;;;;;;5070076;28;20380;-54
2022/10/03 02:58:17;;;;;;;17.88;7.70;;;13.00;99.90;;;;;;5070052;28;20376;-54
2022/10/03 03:01:19;;;;;;;16.38;7.88;;;13.00;99.90;;;;;;5069249;28;20402;-54
2022/10/03 03:04:39;;;;;;;14.60;7.57;;;13.00;99.90;;;;;;5085201;28;20425;-54
2022/10/03 03:07:37;;;;;;;16.23;7.97;;;13.10;99.90;;;;;;5076461;28;20409;-54
2022/10/03 03:10:28;;;;;;;18.10;8.20;;;13.20;99.90;;;;;;5092696;28;20406;-55
2022/10/03 03:13:21;;;;;;;15.13;8.33;;;13.20;99.90;;;;;;5090072;28;20423;-54
2022/10/03 03:16:28;;;;;;;19.52;6.93;;;13.30;99.90;;;;;;5072998;28;20541;-54
2022/10/03 03:19:03;;;;;;;14.85;7.43;;;13.30;99.90;;;;;;5072810;28;20415;-54
2022/10/03 03:21:38;;;;;;;15.97;7.30;;;13.30;99.90;;;;;;5078565;28;20401;-56
2022/10/03 03:24:16;;;;;;;16.93;7.70;;;13.30;99.90;;;;;;5093839;28;20414;-54
2022/10/03 03:26:54;;;;;;;15.90;7.43;;;13.40;99.90;;;;;;5093275;28;20456;-54
2022/10/03 03:29:38;;;;;;;17.50;7.60;;;13.30;99.90;;;;;;5093441;28;20400;-55
2022/10/03 03:32:32;;;;;;;19.20;8.20;;;13.30;99.90;;;;;;5092727;28;20417;-54
2022/10/03 03:35:24;;;;;;;17.05;8.20;;;13.20;99.90;;;;;;5093122;28;20378;-54
2022/10/03 03:38:05;;;;;;;17.23;7.72;;;13.20;99.90;;;;;;5092441;28;20599;-54
2022/10/03 03:41:05;;;;;;;16.35;7.40;;;13.20;99.90;;;;;;5092413;28;20742;-54
2022/10/03 03:44:06;;;;;;;18.35;7.72;;;13.20;99.90;;;;;;5092368;28;20398;-54
2022/10/03 03:46:38;;;;;;;15.23;7.00;;;13.20;99.90;;;;;;5080273;28;20855;-54
2022/10/03 03:49:19;;;;;;;15.93;7.40;;;13.30;99.90;;;;;;5091715;28;20525;-54
2022/10/03 03:52:13;;;;;;;14.05;7.47;;;13.20;99.90;;;;;;5091996;28;20702;-54
2022/10/03 03:55:14;;;;;;;16.88;7.85;;;13.10;99.90;;;;;;5080924;28;20391;-54
2022/10/03 03:58:00;;;;;;;17.05;7.32;;;13.10;99.90;;;;;;5071727;28;20384;-54
2022/10/03 04:00:55;;;;;;;15.77;7.45;;;13.10;99.90;;;;;;5072383;28;20403;-54
2022/10/03 04:03:37;;;;;;;17.53;7.93;;;13.10;99.90;;;;;;5072403;28;20387;-54
2022/10/03 04:06:18;;;;;;;16.03;7.37;;;13.10;99.90;;;;;;5072353;28;20402;-54
2022/10/03 04:08:44;;;;;;;17.48;7.90;;;13.20;99.90;;;;;;5074955;28;20458;-54
2022/10/03 04:11:11;;;;;;;14.10;7.38;;;13.20;99.90;;;;;;5092958;28;20433;-54
2022/10/03 04:13:48;;;;;;;18.08;8.13;;;13.20;99.90;;;;;;5091996;28;20402;-54
2022/10/03 04:19:38;;;;;;;15.05;7.30;;;13.10;99.90;;;;;;5091659;28;20910;-54
2022/10/03 04:22:28;;;;;;;17.50;8.73;;;13.20;99.90;;;;;;5091916;28;20389;-54
2022/10/03 04:25:14;;;;;;;16.83;7.45;;;13.10;99.90;;;;;;5092164;28;20866;-54
2022/10/03 04:27:58;;;;;;;15.30;7.25;;;13.00;99.90;;;;;;5090001;28;20377;-54
2022/10/03 04:30:54;;;;;;;17.38;7.78;;;13.00;99.90;;;;;;5094452;28;20411;-54
2022/10/03 04:33:44;;;;;;;15.98;7.90;;;13.00;99.90;;;;;;5099745;28;20457;-54
2022/10/03 04:36:56;;;;;;;19.23;9.40;;;13.00;99.90;;;;;;5101830;28;20757;-54
2022/10/03 04:39:51;;;;;;;19.15;7.60;;;13.00;99.90;;;;;;5071558;28;20412;-54
2022/10/03 04:42:42;;;;;;;22.55;8.57;;;13.10;99.90;;;;;;5098301;28;20388;-54
2022/10/03 04:45:35;;;;;;;18.67;7.85;;;12.90;99.90;;;;;;5086141;28;20396;-55
2022/10/03 04:48:27;;;;;;;21.50;9.13;;;12.90;99.90;;;;;;5091112;28;20732;-58
2022/10/03 04:51:23;;;;;;;18.35;8.13;;;12.90;99.90;;;;;;5091529;28;20397;-59
2022/10/03 04:54:14;;;;;;;18.13;8.32;;;12.90;99.90;;;;;;5091016;28;20473;-59
2022/10/03 04:56:43;;;;;;;17.67;8.70;;;13.00;99.90;;;;;;5091306;28;20841;-59
2022/10/03 04:59:46;;;;;;;19.40;8.85;;;13.00;99.90;;;;;;5093766;28;20405;-59
2022/10/03 05:02:25;;;;;;;22.13;9.15;;;12.90;99.90;;;;;;5092019;28;20435;-59
2022/10/03 05:05:07;;;;;;;21.53;9.50;;;12.90;99.90;;;;;;5087252;28;21100;-59
2022/10/03 05:07:52;;;;;;;21.05;9.82;;;12.80;99.90;;;;;;5095783;28;20409;-59
2022/10/03 05:10:43;;;;;;;22.98;9.05;;;12.80;99.90;;;;;;5087025;28;20437;-59
2022/10/03 05:13:47;;;;;;;21.13;9.50;;;12.80;99.90;;;;;;5090397;28;20429;-59
2022/10/03 05:16:12;;;;;;;21.00;10.77;;;12.90;99.90;;;;;;5059679;28;20485;-59
2022/10/03 05:19:02;;;;;;;17.40;9.10;;;13.00;99.90;;;;;;5078540;28;20479;-59
2022/10/03 05:21:40;;;;;;;20.80;10.68;;;13.00;99.90;;;;;;5090410;28;20386;-59
2022/10/03 05:24:21;;;;;;;21.70;9.88;;;13.20;99.90;;;;;;5092403;28;20401;-59
2022/10/03 05:27:02;;;;;;;20.77;9.23;;;13.30;99.90;;;;;;5086877;28;20436;-59
2022/10/03 05:29:39;;;;;;;20.40;9.70;;;13.30;99.90;;;;;;5084933;28;20385;-59
2022/10/03 05:32:40;;;;;;;18.30;9.87;;;13.20;99.90;;;;;;5084965;28;20460;-59
2022/10/03 05:35:20;;;;;;;20.60;9.80;;;13.20;99.90;;;;;;5084761;28;20379;-59
2022/10/03 05:38:05;;;;;;;20.43;10.10;;;13.30;99.90;;;;;;5081031;28;20396;-60
2022/10/03 05:40:36;;;;;;;21.52;10.40;;;13.30;99.90;;;;;;5079015;28;20879;-59
2022/10/03 05:43:25;;;;;;;20.73;10.30;;;13.30;99.90;;;;;;5082002;28;20413;-59
2022/10/03 05:46:06;;;;;;;18.70;9.23;;;13.30;99.90;;;;;;5080385;28;20415;-65
2022/10/03 05:48:54;;;;;;;20.57;9.17;;;13.40;99.90;;;;;;5083548;28;20393;-61
2022/10/03 05:51:35;;;;;;;20.90;9.52;;;13.40;99.90;;;;;;5096351;28;20413;-58
2022/10/03 05:54:25;;;;;;;20.50;8.83;;;13.30;99.90;;;;;;5100976;28;20384;-57
2022/10/03 05:57:10;;;;;;;19.13;8.93;;;13.20;99.90;;;;;;5094716;28;20402;-57
2022/10/03 06:00:06;;;;;;;18.38;9.05;;;13.20;99.90;;;;;;5096971;28;20394;-58
2022/10/03 06:02:49;;;;;;;25.27;10.68;;;13.30;99.90;;;;;;5086427;28;20408;-60
2022/10/03 06:05:27;;;;;;;23.02;10.73;;;13.30;99.90;;;;;;5080036;28;20405;-59
2022/10/03 06:08:30;;;;;;;22.95;9.93;;;13.30;99.90;;;;;;5087869;28;20386;-57
2022/10/03 06:11:18;;;;;;;21.95;9.80;;;13.30;99.90;;;;;;5086088;28;20393;-58
2022/10/03 06:13:53;;;;;;;18.00;9.68;;;13.20;99.90;;;;;;5083490;28;20509;-57
2022/10/03 06:16:43;;;;;;;20.67;9.97;;;13.10;99.90;;;;;;5081057;28;20413;-58
2022/10/03 06:19:48;;;;;;;23.98;10.30;;;13.20;99.90;;;;;;5085547;28;20422;-59
2022/10/03 06:22:51;;;;;;;23.67;12.07;;;13.40;99.90;;;;;;5054459;28;20400;-61
2022/10/03 06:25:45;;;;;;;23.73;11.40;;;14.80;99.90;;;;;;5088419;28;20385;-58
2022/10/03 06:28:56;;;;;;;20.27;8.82;;;13.50;99.90;;;;;;5087771;28;20410;-58
2022/10/03 06:31:34;;;;;;;22.60;9.52;;;13.60;99.90;;;;;;5088348;28;20405;-58
2022/10/03 06:34:38;;;;;;;20.77;10.13;;;13.50;99.90;;;;;;5088947;28;20982;-58
2022/10/03 06:37:04;;;;;;;21.52;10.50;;;13.70;99.90;;;;;;5051527;28;20481;-58
2022/10/03 06:39:30;;;;;;;20.63;9.63;;;13.80;99.90;;;;;;5085692;28;20966;-59
2022/10/03 06:42:34;;;;;;;19.10;9.70;;;13.80;99.90;;;;;;5082721;28;20416;-58
2022/10/03 06:45:27;;;;;;;18.08;9.40;;;13.90;99.90;;;;;;5086600;28;20397;-54
2022/10/03 06:48:35;;;;;;;20.55;9.90;;;14.10;99.90;;;;;;5088889;28;20470;-55
2022/10/03 06:51:30;;;;;;;20.73;9.00;;;14.20;94.10;;;;;;5089368;28;20468;-55
2022/10/03 06:54:15;;;;;;;18.83;8.45;;;14.10;49.20;;;;;;5082318;28;20445;-55
2022/10/03 06:57:02;;;;;;;20.00;10.43;;;14.00;99.90;;;;;;5083158;28;20435;-55
2022/10/03 06:59:27;;;;;;;19.10;9.93;;;14.30;99.90;;;;;;5089283;28;20386;-55
2022/10/03 07:02:37;;;;;;;19.40;8.90;;;14.30;99.90;;;;;;5088724;28;20471;-54
2022/10/03 07:05:30;;;;;;;16.00;8.50;;;14.60;90.10;;;;;;5068280;28;20420;-55
2022/10/03 07:08:08;;;;;;;17.77;8.73;;;14.80;34.60;;;;;;5089375;28;20438;-55
2022/10/03 07:10:39;;;;;;;18.38;8.52;;;15.70;1.00;;;;;;5089205;28;20390;-57
2022/10/03 07:13:25;;;;;;;13.43;7.28;;;16.40;1.00;;;;;;5089452;28;20941;-55
2022/10/03 07:16:26;;;;;;;14.00;6.53;;;17.00;1.00;;;;;;5088901;28;20401;-55
2022/10/03 07:19:19;;;;;;;15.88;7.78;;;17.20;99.90;;;;;;5089338;28;20382;-55
2022/10/03 07:21:47;;;;;;;12.50;6.13;;;16.80;99.90;;;;;;5088863;28;20373;-55
2022/10/03 07:24:44;;;;;;;15.13;6.13;;;16.50;99.90;;;;;;5089365;28;20386;-55
2022/10/03 07:27:37;;;;;;;13.40;6.90;;;16.60;99.90;;;;;;5071501;28;20436;-55
2022/10/03 07:30:17;;;;;;;16.52;6.75;;;16.40;99.90;;;;;;5089820;28;20413;-57
2022/10/03 07:33:20;;;;;;;15.23;6.40;;;15.80;99.90;;;;;;5088864;28;20975;-57
2022/10/03 07:39:54;;;;;;;13.13;5.82;;;15.60;99.90;;;;;;5089503;28;20373;-57
2022/10/03 07:42:24;;;;;;;12.68;5.85;;;16.20;99.90;;;;;;5089602;28;20382;-58
2022/10/03 07:45:08;;;;;;;14.23;6.43;;;15.00;1.00;;;;;;5088814;28;20392;-57
2022/10/03 07:47:57;;;;;;;14.57;6.25;;;15.20;99.90;;;;;;5089025;28;20863;-59
2022/10/03 07:50:49;;;;;;;14.85;6.25;;;15.40;7.60;;;;;;5089495;28;20401;-58
2022/10/03 07:53:48;;;;;;;15.73;6.90;;;15.40;43.30;;;;;;5089465;28;20416;-58
2022/10/03 07:56:31;;;;;;;15.70;6.80;;;15.50;46.50;;;;;;5090947;28;20400;-58
2022/10/03 07:59:25;;;;;;;15.07;7.13;;;15.40;1.00;;;;;;5092265;28;20438;-57
2022/10/03 08:02:20;;;;;;;14.90;7.38;;;15.40;99.90;;;;;;5091780;28;20386;-58
2022/10/03 08:05:06;;;;;;;14.93;6.20;;;15.30;18.50;;;;;;5092081;28;20736;-57
2022/10/03 08:07:55;;;;;;;15.00;6.87;;;15.20;99.90;;;;;;5092905;28;20378;-58
2022/10/03 08:10:48;;;;;;;16.77;7.40;;;14.80;1.00;;;;;;5093277;28;20379;-57
2022/10/03 08:13:38;;;;;;;17.08;7.25;;;14.60;99.90;;;;;;5092812;28;20451;-57
2022/10/03 08:16:22;;;;;;;18.15;6.80;;;14.40;1.00;;;;;;5092589;28;20711;-54
2022/10/03 08:19:23;;;;;;;14.27;6.70;;;14.30;1.00;;;;;;5091756;28;20421;-55
2022/10/03 08:22:03;;;;;;;14.88;7.70;;;14.30;1.00;;;;;;5048136;28;20473;-55
2022/10/03 08:24:53;;;;;;;17.15;8.00;;;14.20;1.00;;;;;;5092216;28;20468;-55
2022/10/03 08:27:19;;;;;;;16.08;7.50;;;14.20;1.00;;;;;;5092194;28;20494;-55
2022/10/03 08:29:50;;;;;;;16.05;7.32;;;14.30;1.00;;;;;;5091503;28;20805;-55
2022/10/03 08:32:31;;;;;;;19.63;7.95;;;14.20;1.00;;;;;;5091939;28;20406;-55
2022/10/03 08:35:21;;;;;;;18.38;7.57;;;14.20;1.00;;;;;;5091841;28;20389;-55
2022/10/03 08:38:06;;;;;;;18.42;7.75;;;14.00;1.00;;;;;;5091783;28;20374;-55
2022/10/03 08:41:09;;;;;;;24.05;12.10;;;14.00;1.00;;;;;;5091931;28;20386;-57
2022/10/03 08:44:30;;;;;;;18.90;7.93;;;14.00;1.00;;;;;;5091182;28;20431;-57
2022/10/03 08:47:25;;;;;;;15.45;7.90;;;14.30;1.00;;;;;;5003218;28;20405;-55
2022/10/03 08:50:12;;;;;;;15.10;7.20;;;14.40;1.00;;;;;;5091206;28;20460;-55
2022/10/03 08:53:27;;;;;;;16.50;6.82;;;14.50;1.00;;;;;;5090994;28;20492;-55
2022/10/03 08:56:26;;;;;;;19.80;5.70;;;14.60;1.00;;;;;;5073664;28;20401;-57
2022/10/03 08:59:29;;;;;;;15.02;6.05;;;14.60;99.90;;;;;;5086424;28;20390;-57
2022/10/03 09:02:26;;;;;;;14.00;5.88;;;14.60;99.90;;;;;;5089204;28;20902;-58
2022/10/03 09:05:17;;;;;;;13.88;5.57;;;14.60;99.90;;;;;;5090970;28;20417;-58
2022/10/03 09:07:48;;;;;;;12.43;5.65;;;14.60;99.90;;;;;;5090611;28;20511;-58
2022/10/03 09:10:44;;;;;;;15.57;6.55;;;14.60;99.90;;;;;;5091734;28;20840;-58
2022/10/03 09:13:36;;;;;;;13.63;5.82;;;14.70;99.90;;;;;;5091376;28;20547;-58
2022/10/03 09:16:47;;;;;;;14.73;6.45;;;14.60;99.90;;;;;;5091486;28;20382;-55
2022/10/03 09:19:51;;;;;;;16.00;7.50;;;14.50;1.00;;;;;;5091259;28;20501;-57
2022/10/03 09:22:38;;;;;;;17.58;7.40;;;14.70;1.00;;;;;;5090840;28;20862;-57
2022/10/03 09:25:27;;;;;;;15.23;7.32;;;14.90;99.90;;;;;;5090937;28;20373;-57
2022/10/03 09:28:11;;;;;;;18.33;6.88;;;14.90;99.90;;;;;;5090938;28;20418;-57
2022/10/03 09:30:53;;;;;;;16.85;7.18;;;14.90;99.90;;;;;;5072511;28;20429;-57
2022/10/03 09:33:38;;;;;;;99.68;44.25;;;15.00;99.90;;;;;;5090683;28;20417;-57
2022/10/03 09:36:18;;;;;;;341.03;142.13;;;15.00;99.90;;;;;;5090725;28;20386;-57
2022/10/03 09:38:55;;;;;;;139.20;61.23;;;15.40;99.90;;;;;;5090264;28;20382;-57
2022/10/03 09:41:33;;;;;;;184.73;103.10;;;15.30;99.90;;;;;;5091289;28;20504;-57
2022/10/03 09:44:22;;;;;;;37.83;23.42;;;15.50;99.90;;;;;;5090877;28;20870;-57
2022/10/03 09:47:21;;;;;;;19.58;8.07;;;15.50;1.00;;;;;;5080089;28;20398;-57
2022/10/03 09:49:50;;;;;;;17.10;8.63;;;15.40;1.00;;;;;;5069329;28;20857;-57
2022/10/03 09:53:12;;;;;;;18.33;7.55;;;15.50;12.20;;;;;;5086434;28;20412;-57
2022/10/03 09:55:57;;;;;;;16.27;7.50;;;15.70;1.00;;;;;;5006685;28;20396;-58
2022/10/03 09:58:38;;;;;;;12.85;5.50;;;15.50;1.00;;;;;;5062990;28;20883;-57
2022/10/03 10:01:19;;;;;;;12.93;5.60;;;15.30;99.90;;;;;;5089666;28;20901;-56
2022/10/03 10:04:15;;;;;;;14.10;5.70;;;15.30;99.90;;;;;;5086921;28;20573;-57
2022/10/03 10:06:59;;;;;;;15.25;6.20;;;15.70;99.90;;;;;;5090867;28;20410;-57
2022/10/03 10:09:24;;;;;;;17.00;6.80;;;16.00;1.00;;;;;;5099430;28;20385;-59
2022/10/03 10:12:27;;;;;;;14.40;6.28;;;15.90;99.90;;;;;;5090721;28;20398;-57
2022/10/03 10:15:12;;;;;;;24.25;9.20;;;15.90;4.30;;;;;;5092625;28;20415;-57
2022/10/03 10:17:53;;;;;;;12.25;5.60;;;16.10;99.90;;;;;;5102663;28;20400;-59
2022/10/03 10:20:45;;;;;;;12.45;5.63;;;16.10;1.00;;;;;;5093360;28;20448;-57
2022/10/03 10:23:36;;;;;;;14.70;5.90;;;16.10;1.00;;;;;;5090384;28;20498;-57
2022/10/03 10:26:49;;;;;;;15.50;5.50;;;16.40;99.90;;;;;;5092242;28;20401;-57
2022/10/03 10:29:33;;;;;;;14.00;5.90;;;16.60;1.00;;;;;;5094707;28;20401;-57
2022/10/03 10:31:58;;;;;;;10.60;4.50;;;17.30;99.90;;;;;;5094837;28;20405;-57
2022/10/03 10:34:48;;;;;;;14.27;6.47;;;17.50;1.00;;;;;;5094167;28;20447;-58
2022/10/03 10:37:32;;;;;;;16.00;4.50;;;17.10;1.00;;;;;;5096181;28;20387;-57
2022/10/03 10:40:06;;;;;;;11.48;4.47;;;16.90;1.00;;;;;;5090918;28;20372;-57
2022/10/03 10:43:13;;;;;;;13.43;4.30;;;17.10;1.00;;;;;;5094951;28;21825;-57
2022/10/03 10:46:20;;;;;;;12.50;4.32;;;17.10;99.90;;;;;;5088700;28;20384;-59
2022/10/03 10:49:23;;;;;;;13.70;4.57;;;17.50;1.00;;;;;;5087881;28;20382;-56
2022/10/03 10:52:23;;;;;;;11.50;4.30;;;18.80;99.90;;;;;;5082673;28;20905;-56
2022/10/03 10:55:03;;;;;;;15.55;4.70;;;20.30;1.00;;;;;;5087986;28;20415;-55
2022/10/03 10:57:50;;;;;;;11.63;5.00;;;21.20;1.00;;;;;;5088954;28;20390;-56
2022/10/03 11:00:34;;;;;;;15.82;7.32;;;21.80;1.00;;;;;;5088257;28;20394;-58
2022/10/03 11:03:49;;;;;;;11.45;6.47;;;22.20;1.00;;;;;;5087194;28;20387;-57
2022/10/03 11:06:43;;;;;;;12.27;7.22;;;22.30;1.00;;;;;;5087010;28;20461;-58
2022/10/03 11:09:36;;;;;;;47.13;34.95;;;22.90;1.00;;;;;;5088827;28;20382;-58
2022/10/03 11:12:39;;;;;;;8.97;3.23;;;23.50;99.90;;;;;;5085506;28;20421;-57
2022/10/03 11:15:26;;;;;;;10.38;4.30;;;22.70;99.90;;;;;;5082726;28;20883;-58
2022/10/03 11:17:55;;;;;;;12.70;5.17;;;22.40;99.90;;;;;;5086817;28;20383;-58
2022/10/03 11:20:56;;;;;;;22.50;11.00;;;22.10;99.90;;;;;;5087081;28;20409;-55
2022/10/03 11:23:36;;;;;;;14.88;5.20;;;21.20;99.90;;;;;;5088320;28;20485;-56
2022/10/03 11:26:20;;;;;;;12.07;5.25;;;20.70;99.90;;;;;;5082774;28;20398;-55
2022/10/03 11:29:19;;;;;;;15.38;8.07;;;20.10;99.90;;;;;;5087888;28;20390;-56
2022/10/03 11:32:01;;;;;;;11.82;5.05;;;19.90;99.90;;;;;;5090938;28;20743;-56
2022/10/03 11:34:56;;;;;;;10.13;4.10;;;19.70;99.90;;;;;;5093028;28;20452;-55
2022/10/03 11:37:37;;;;;;;10.32;3.63;;;19.70;99.90;;;;;;5090891;28;20777;-56
2022/10/03 11:40:35;;;;;;;10.63;4.82;;;19.10;99.90;;;;;;5092067;28;20733;-56
2022/10/03 11:43:21;;;;;;;9.00;4.10;;;18.70;99.90;;;;;;5089823;28;20405;-56
2022/10/03 11:45:59;;;;;;;12.73;4.20;;;18.30;99.90;;;;;;5092141;28;20370;-55
2022/10/03 11:48:39;;;;;;;9.40;3.65;;;17.70;99.90;;;;;;5092660;28;20473;-55
2022/10/03 11:51:14;;;;;;;8.18;3.40;;;17.70;99.90;;;;;;5092832;28;20478;-56
2022/10/03 11:53:52;;;;;;;12.55;3.88;;;17.40;99.90;;;;;;5091636;28;20414;-57
2022/10/03 11:56:46;;;;;;;10.33;3.87;;;17.30;1.00;;;;;;5087123;28;20399;-58
2022/10/03 11:59:34;;;;;;;12.48;4.68;;;17.20;1.00;;;;;;5087892;28;20439;-56
2022/10/03 12:02:23;;;;;;;10.85;4.38;;;17.80;1.00;;;;;;5088198;28;20410;-55
2022/10/03 12:05:06;;;;;;;10.67;4.33;;;18.40;1.00;;;;;;5090597;28;20725;-56
2022/10/03 12:10:37;;;;;;;12.07;3.30;;;18.50;1.00;;;;;;5085651;28;20436;-57
2022/10/03 12:13:12;;;;;;;10.52;3.90;;;18.60;1.00;;;;;;5091455;28;20738;-56
2022/10/03 12:15:53;;;;;;;8.97;3.57;;;18.50;1.00;;;;;;5089059;28;20448;-58
2022/10/03 12:18:44;;;;;;;9.55;3.65;;;18.40;1.00;;;;;;5090912;28;20448;-56
2022/10/03 12:21:33;;;;;;;11.70;3.67;;;18.30;1.00;;;;;;5089225;28;20398;-56
2022/10/03 12:24:17;;;;;;;8.65;3.70;;;18.20;1.00;;;;;;5090471;28;20439;-56
2022/10/03 12:26:59;;;;;;;10.20;3.35;;;18.50;1.00;;;;;;5090772;28;20370;-56
2022/10/03 12:29:31;;;;;;;10.27;3.17;;;18.70;99.90;;;;;;5088447;28;20428;-56
2022/10/03 12:32:35;;;;;;;10.38;3.50;;;18.60;99.90;;;;;;5090181;28;21268;-56
2022/10/03 12:35:23;;;;;;;8.20;2.83;;;18.20;99.90;;;;;;5041028;28;20467;-56
2022/10/03 12:38:10;;;;;;;7.60;2.60;;;18.00;99.90;;;;;;5088336;28;20410;-58
2022/10/03 12:40:43;;;;;;;7.70;2.83;;;17.80;99.90;;;;;;5089995;28;20410;-59
2022/10/03 12:43:27;;;;;;;7.38;2.40;;;17.60;99.90;;;;;;5088395;28;20386;-58
2022/10/03 12:46:00;;;;;;;11.60;3.13;;;17.60;99.90;;;;;;5088611;28;20428;-55
2022/10/03 12:49:00;;;;;;;9.25;2.90;;;18.30;99.90;;;;;;5088492;28;20390;-55
2022/10/03 12:51:55;;;;;;;9.05;2.97;;;18.80;99.90;;;;;;5036864;28;20386;-56
2022/10/03 12:54:32;;;;;;;10.18;2.70;;;19.10;99.90;;;;;;5079145;28;20479;-56
2022/10/03 12:57:07;;;;;;;7.78;2.92;;;19.20;99.90;;;;;;5090554;28;20774;-55
2022/10/03 12:59:43;;;;;;;9.35;2.67;;;19.30;99.90;;;;;;5089081;28;20461;-56
2022/10/03 13:02:34;;;;;;;10.50;2.90;;;19.30;99.90;;;;;;5090988;28;20410;-56
2022/10/03 13:05:22;;;;;;;8.50;2.90;;;20.00;99.90;;;;;;5089104;28;20455;-56
2022/10/03 13:08:20;;;;;;;8.15;2.40;;;18.80;99.90;;;;;;5071238;28;20531;-56
2022/10/03 13:10:54;;;;;;;9.10;2.80;;;18.70;99.90;;;;;;5010844;28;20391;-56
2022/10/03 13:13:35;;;;;;;7.87;2.43;;;18.80;99.90;;;;;;5086578;28;20436;-56
2022/10/03 13:16:27;;;;;;;10.13;4.13;;;19.10;99.90;;;;;;5089723;28;20454;-56
2022/10/03 13:19:13;;;;;;;8.23;2.30;;;18.80;99.90;;;;;;5088009;28;20393;-56
2022/10/03 13:22:11;;;;;;;6.85;2.40;;;18.80;99.90;;;;;;5089493;28;20376;-56
2022/10/03 13:24:40;;;;;;;8.40;2.33;;;18.50;99.90;;;;;;5072104;28;20746;-56
2022/10/03 13:27:33;;;;;;;7.20;2.28;;;18.10;99.90;;;;;;5090342;28;20390;-58
2022/10/03 13:30:21;;;;;;;7.53;2.90;;;17.90;99.90;;;;;;5088631;28;20570;-58
2022/10/03 13:33:00;;;;;;;6.50;2.30;;;17.90;99.90;;;;;;5093437;28;20423;-59
2022/10/03 13:35:57;;;;;;;8.60;2.80;;;18.10;99.90;;;;;;5087390;28;20433;-58
2022/10/03 13:38:44;;;;;;;7.90;2.70;;;18.10;99.90;;;;;;5090625;28;20377;-58
2022/10/03 13:41:13;;;;;;;9.38;2.92;;;18.10;99.90;;;;;;5090806;28;20378;-58
2022/10/03 13:43:45;;;;;;;7.60;2.60;;;18.40;99.90;;;;;;5106023;28;20386;-57
2022/10/03 13:46:17;;;;;;;8.63;2.80;;;18.60;99.90;;;;;;5090348;28;20840;-58
2022/10/03 13:48:53;;;;;;;11.13;2.88;;;18.70;99.90;;;;;;5089805;28;20382;-56
2022/10/03 13:52:01;;;;;;;10.63;3.33;;;18.90;99.90;;;;;;5087521;28;20390;-56
2022/10/03 13:54:57;;;;;;;7.57;2.83;;;19.00;99.90;;;;;;4951432;28;20408;-56
2022/10/03 13:57:28;;;;;;;9.00;3.03;;;19.00;99.90;;;;;;5089149;28;20431;-56
2022/10/03 14:00:14;;;;;;;8.75;2.97;;;18.50;99.90;;;;;;5087749;28;20389;-56
2022/10/03 14:02:50;;;;;;;9.88;3.30;;;18.30;99.90;;;;;;5085162;28;20413;-57
2022/10/03 14:05:34;;;;;;;6.80;2.80;;;18.20;99.90;;;;;;5087845;28;20443;-59
2022/10/03 14:08:15;;;;;;;8.10;2.85;;;17.80;99.90;;;;;;5089656;28;20366;-59
2022/10/03 14:10:59;;;;;;;10.20;2.88;;;18.00;99.90;;;;;;5089690;28;20910;-60
2022/10/03 14:14:04;;;;;;;8.45;2.72;;;18.40;99.90;;;;;;5089494;28;20979;-56
2022/10/03 14:16:46;;;;;;;9.32;2.60;;;19.10;99.90;;;;;;5089854;28;20465;-56
2022/10/03 14:19:35;;;;;;;8.70;3.10;;;19.00;99.90;;;;;;5095767;28;20409;-57
2022/10/03 14:22:22;;;;;;;7.05;2.70;;;18.90;99.90;;;;;;5079478;28;20687;-57
2022/10/03 14:25:17;;;;;;;9.15;3.08;;;19.00;99.90;;;;;;5083797;28;20404;-57
2022/10/03 14:28:09;;;;;;;10.40;3.10;;;19.00;99.90;;;;;;5104206;28;20380;-58
2022/10/03 14:30:55;;;;;;;7.53;3.10;;;18.90;99.90;;;;;;5106692;28;20475;-58